Time;durP1;ratioP1;P1;durP2;ratioP2;P2;SDS_P1;SDS_P2;PMS_P1;PMS_P2;Temp;Humidity;BMP_temperature;BMP_pressure;BME280_temperature;BME280_humidity;BME280_pressure;Samples;Min_cycle;Max_cycle;Signal;HPM_P1;HPM_P2
2023/08/10 00:02:08;;;;;;;21.90;20.00;;;;;;;15.50;65.54;100536.75;4994065;28;97106;-80
2023/08/10 00:04:34;;;;;;;24.08;22.13;;;;;;;15.54;65.27;100544.47;4993504;28;97212;-79
2023/08/10 00:06:59;;;;;;;20.17;18.58;;;;;;;15.52;65.01;100545.47;4993308;28;99118;-80
2023/08/10 00:09:25;;;;;;;21.13;19.08;;;;;;;15.48;65.07;100539.50;4993911;28;98249;-80
2023/08/10 00:11:51;;;;;;;20.83;19.23;;;;;;;15.45;65.07;100541.44;4994224;28;96744;-81
2023/08/10 00:14:16;;;;;;;21.35;19.65;;;;;;;15.40;65.15;100544.31;4994398;28;97127;-80
2023/08/10 00:16:43;;;;;;;21.17;19.48;;;;;;;15.44;65.07;100545.00;4993786;28;98713;-80
2023/08/10 00:19:09;;;;;;;20.40;18.90;;;;;;;15.39;65.21;100546.09;4993668;28;98339;-80
2023/08/10 00:21:34;;;;;;;21.88;20.17;;;;;;;15.36;64.85;100548.91;4992795;28;97470;-80
2023/08/10 00:24:00;;;;;;;20.83;19.42;;;;;;;15.40;64.49;100544.31;4994065;28;96859;-80
2023/08/10 00:26:25;;;;;;;20.40;18.75;;;;;;;15.35;64.31;100541.88;4993461;28;99180;-80
2023/08/10 00:28:51;;;;;;;21.55;19.65;;;;;;;15.36;64.68;100542.75;4992582;28;98742;-80
2023/08/10 00:31:17;;;;;;;21.77;20.00;;;;;;;15.30;64.75;100549.22;4971481;28;97216;-80
2023/08/10 00:33:43;;;;;;;20.98;19.48;;;;;;;15.29;64.68;100538.69;4994091;28;96942;-80
2023/08/10 00:36:09;;;;;;;20.67;19.02;;;;;;;15.31;64.94;100552.72;4988461;28;98851;-80
2023/08/10 00:38:35;;;;;;;21.42;19.83;;;;;;;15.27;65.03;100557.31;4983056;28;98487;-80
2023/08/10 00:41:02;;;;;;;20.75;19.13;;;;;;;15.27;64.83;100549.38;4990724;28;96843;-81
2023/08/10 00:43:27;;;;;;;21.15;19.45;;;;;;;15.20;64.24;100542.66;4976123;28;96898;-80
2023/08/10 00:45:54;;;;;;;22.42;20.38;;;;;;;15.25;64.30;100551.22;4991566;28;98686;-80
2023/08/10 00:48:20;;;;;;;21.13;19.58;;;;;;;15.21;64.38;100546.16;4990318;28;98844;-80
2023/08/10 00:50:50;;;;;;;20.65;18.98;;;;;;;15.23;64.40;100547.78;4966745;28;97088;-79
2023/08/10 00:53:16;;;;;;;21.20;19.58;;;;;;;15.26;64.17;100542.34;4967824;28;96915;-81
2023/08/10 00:55:43;;;;;;;20.52;19.13;;;;;;;15.26;64.06;100550.28;4991399;28;99205;-80
2023/08/10 00:58:11;;;;;;;20.52;18.88;;;;;;;15.29;64.26;100549.28;4981605;28;98830;-81
2023/08/10 01:00:37;;;;;;;21.27;19.33;;;;;;;15.23;64.40;100545.13;4954918;28;97379;-81
2023/08/10 01:03:04;;;;;;;21.05;19.35;;;;;;;15.25;64.15;100550.38;4975178;28;98180;-80
2023/08/10 01:05:34;;;;;;;20.65;19.15;;;;;;;15.22;64.46;100547.88;4981783;28;98907;-81
2023/08/10 01:08:18;;;;;;;21.40;19.70;;;;;;;15.20;64.63;100549.72;4993159;28;98110;-81
2023/08/10 01:10:52;;;;;;;21.42;19.38;;;;;;;15.20;64.52;100557.66;4956619;28;96780;-81
2023/08/10 01:13:20;;;;;;;20.13;18.45;;;;;;;15.13;64.52;100557.97;4989886;28;97096;-81
2023/08/10 01:15:49;;;;;;;21.00;19.30;;;;;;;15.12;64.44;100561.53;4975284;28;98792;-81
2023/08/10 01:18:16;;;;;;;21.95;19.77;;;;;;;15.16;64.45;100567.53;4991549;28;98486;-82
2023/08/10 01:20:43;;;;;;;20.42;18.90;;;;;;;15.13;64.62;100567.69;5000397;28;96813;-80
2023/08/10 01:23:24;;;;;;;20.85;19.00;;;;;;;15.06;64.62;100560.97;4971390;28;97254;-82
2023/08/10 01:25:50;;;;;;;20.27;18.67;;;;;;;15.04;64.93;100565.47;4986064;28;98624;-81
2023/08/10 01:28:15;;;;;;;21.10;19.33;;;;;;;14.98;65.25;100564.00;4975583;28;100804;-82
2023/08/10 01:30:42;;;;;;;21.42;19.83;;;;;;;14.92;65.46;100562.53;4975029;28;96907;-81
2023/08/10 01:33:08;;;;;;;21.70;20.00;;;;;;;14.88;65.39;100547.72;4960083;28;96993;-83
2023/08/10 01:35:37;;;;;;;21.25;19.50;;;;;;;14.99;65.29;100563.06;4990254;28;98788;-81
2023/08/10 01:38:04;;;;;;;21.38;19.60;;;;;;;14.96;65.13;100562.38;4993163;28;98377;-81
2023/08/10 01:40:30;;;;;;;21.00;19.55;;;;;;;14.87;65.31;100561.88;4984273;28;97555;-82
2023/08/10 01:42:56;;;;;;;20.75;19.15;;;;;;;14.94;65.23;100562.44;4980679;28;97661;-82
2023/08/10 01:45:22;;;;;;;20.45;18.48;;;;;;;14.92;65.20;100569.56;4991401;28;98904;-81
2023/08/10 01:47:53;;;;;;;20.17;18.55;;;;;;;14.87;65.10;100572.44;4992605;28;98334;-81
2023/08/10 01:50:20;;;;;;;20.20;18.80;;;;;;;14.82;65.29;100574.44;4990512;28;97022;-80
2023/08/10 01:52:50;;;;;;;21.98;19.95;;;;;;;14.85;65.33;100584.88;4989392;28;96928;-81
2023/08/10 01:55:17;;;;;;;20.75;18.92;;;;;;;14.76;65.22;100584.47;4973090;28;100437;-81
2023/08/10 01:57:43;;;;;;;20.02;18.65;;;;;;;14.79;65.42;100597.53;4971693;28;98574;-81
2023/08/10 02:00:09;;;;;;;21.17;19.67;;;;;;;14.81;65.12;100599.19;4973061;28;97321;-81
2023/08/10 02:02:46;;;;;;;21.17;19.52;;;;;;;14.75;65.23;100580.09;4991804;28;98316;-80
2023/08/10 02:05:12;;;;;;;20.98;19.40;;;;;;;14.79;65.10;100587.81;4992489;28;99006;-80
2023/08/10 02:07:38;;;;;;;20.55;18.95;;;;;;;14.73;65.22;100589.91;4995526;28;98600;-81
2023/08/10 02:10:05;;;;;;;20.33;18.92;;;;;;;14.62;65.28;100580.66;4990701;28;97157;-80
2023/08/10 02:12:30;;;;;;;21.50;19.75;;;;;;;14.71;65.33;100589.94;4992476;28;96901;-80
2023/08/10 02:14:58;;;;;;;22.05;20.33;;;;;;;14.69;65.14;100589.19;4992043;28;98954;-81
2023/08/10 02:17:35;;;;;;;20.77;19.15;;;;;;;14.70;65.28;100589.09;4983417;28;97189;-80
2023/08/10 02:20:13;;;;;;;20.67;18.98;;;;;;;14.64;65.17;100589.38;4992490;28;97008;-81
2023/08/10 02:22:46;;;;;;;21.20;19.40;;;;;;;14.69;65.29;100586.53;4967845;28;97347;-80
2023/08/10 02:25:11;;;;;;;21.33;19.52;;;;;;;14.65;65.34;100588.44;4991816;28;98608;-81
2023/08/10 02:27:38;;;;;;;21.50;19.50;;;;;;;14.66;65.26;100587.53;4991363;28;98818;-81
2023/08/10 02:30:06;;;;;;;20.67;19.08;;;;;;;14.61;65.27;100580.75;4971808;28;97032;-80
2023/08/10 02:32:31;;;;;;;21.70;19.65;;;;;;;14.64;65.53;100585.91;4974210;28;96938;-80
2023/08/10 02:34:57;;;;;;;21.55;19.85;;;;;;;14.69;65.71;100586.53;4991148;28;99785;-81
2023/08/10 02:37:23;;;;;;;21.23;19.63;;;;;;;14.57;65.64;100579.16;4990809;28;98795;-80
2023/08/10 02:39:49;;;;;;;20.55;18.95;;;;;;;14.63;65.50;100590.34;4981694;28;97364;-81
2023/08/10 02:42:15;;;;;;;20.40;18.38;;;;;;;14.66;65.63;100589.31;4979336;28;96865;-81
2023/08/10 02:44:43;;;;;;;20.98;19.40;;;;;;;14.64;65.67;100586.75;4992213;28;98740;-81
2023/08/10 02:47:08;;;;;;;21.65;19.95;;;;;;;14.67;65.62;100591.88;4968855;28;100452;-81
2023/08/10 02:49:34;;;;;;;21.20;19.65;;;;;;;14.66;66.00;100587.53;4984091;28;97113;-80
2023/08/10 02:51:59;;;;;;;20.58;18.75;;;;;;;14.63;66.17;100594.72;4992893;28;96888;-81
2023/08/10 02:54:25;;;;;;;21.67;19.45;;;;;;;14.58;65.99;100587.03;4990673;28;98706;-80
2023/08/10 02:56:50;;;;;;;22.35;20.27;;;;;;;14.59;66.29;100593.16;4993307;28;98532;-81
2023/08/10 02:59:16;;;;;;;21.30;19.63;;;;;;;14.57;66.41;100595.03;4984485;28;96732;-82
2023/08/10 03:01:41;;;;;;;20.67;19.23;;;;;;;14.56;66.60;100588.88;4994477;28;97033;-81
2023/08/10 03:04:07;;;;;;;22.20;20.23;;;;;;;14.56;66.03;100588.03;4972782;28;100567;-81
2023/08/10 03:06:33;;;;;;;21.98;19.95;;;;;;;14.61;65.78;100597.47;4985492;28;98906;-81
2023/08/10 03:08:58;;;;;;;22.60;20.60;;;;;;;14.62;65.83;100606.25;4969809;28;97167;-80
2023/08/10 03:11:24;;;;;;;22.05;20.23;;;;;;;14.58;65.53;100602.03;4974681;28;96911;-79
2023/08/10 03:13:49;;;;;;;22.77;20.40;;;;;;;14.52;65.94;100599.69;4987242;28;99301;-81
2023/08/10 03:16:15;;;;;;;21.10;19.30;;;;;;;14.49;65.73;100600.66;4990938;28;98369;-80
2023/08/10 03:18:40;;;;;;;21.63;19.80;;;;;;;14.49;66.01;100605.94;4995137;28;97830;-81
2023/08/10 03:21:06;;;;;;;21.77;20.17;;;;;;;14.44;65.83;100610.56;4994766;28;96871;-81
2023/08/10 03:23:31;;;;;;;21.88;20.13;;;;;;;14.43;65.58;100606.22;4994531;28;98672;-80
2023/08/10 03:25:57;;;;;;;21.77;19.85;;;;;;;14.36;66.03;100618.81;4976892;28;99904;-80
2023/08/10 03:28:22;;;;;;;20.98;19.58;;;;;;;14.34;66.00;100615.41;4991857;28;97189;-80
2023/08/10 03:30:50;;;;;;;22.60;20.27;;;;;;;14.29;66.89;100625.31;4976452;28;96823;-80
2023/08/10 03:33:16;;;;;;;21.10;19.25;;;;;;;14.29;66.94;100625.31;4972467;28;100848;-81
2023/08/10 03:35:44;;;;;;;20.95;19.35;;;;;;;14.25;67.24;100627.22;4977042;28;100174;-80
2023/08/10 03:38:10;;;;;;;22.40;20.42;;;;;;;14.31;66.57;100627.84;4977420;28;96728;-80
2023/08/10 03:40:35;;;;;;;21.55;19.75;;;;;;;14.29;66.18;100629.72;4966077;28;96936;-80
2023/08/10 03:43:01;;;;;;;21.23;19.45;;;;;;;14.30;66.19;100634.06;4995366;28;98863;-80
2023/08/10 03:45:26;;;;;;;21.65;19.80;;;;;;;14.25;65.93;100637.78;4976902;28;100482;-80
2023/08/10 03:47:52;;;;;;;21.55;19.42;;;;;;;14.34;66.11;100638.28;4982517;28;96715;-80
2023/08/10 03:50:17;;;;;;;19.38;17.98;;;;;;;14.26;66.10;100641.28;4993940;28;97139;-80
2023/08/10 03:52:43;;;;;;;20.52;18.83;;;;;;;14.23;66.14;100644.06;4977291;28;98655;-80
2023/08/10 03:55:10;;;;;;;21.50;19.80;;;;;;;14.18;66.38;100654.81;4991611;28;98425;-80
2023/08/10 03:57:36;;;;;;;21.73;19.73;;;;;;;14.18;66.57;100656.59;4991267;28;97818;-79
2023/08/10 04:00:01;;;;;;;21.35;19.48;;;;;;;14.15;66.56;100654.94;4972229;28;96949;-79
2023/08/10 04:02:28;;;;;;;21.42;19.58;;;;;;;14.22;66.20;100653.78;4970299;28;98819;-79
2023/08/10 04:04:54;;;;;;;22.50;20.80;;;;;;;14.15;66.15;100654.94;4969778;28;99327;-80
2023/08/10 04:07:19;;;;;;;21.90;20.30;;;;;;;14.18;66.26;100653.97;4995981;28;96779;-78
2023/08/10 04:09:47;;;;;;;21.27;19.52;;;;;;;14.19;66.65;100659.16;4986261;28;97210;-79
2023/08/10 04:12:14;;;;;;;22.02;20.25;;;;;;;14.16;66.62;100661.94;4978510;28;98676;-80
2023/08/10 04:14:40;;;;;;;22.42;20.60;;;;;;;14.22;66.23;100663.44;4980051;28;98440;-80
2023/08/10 04:17:05;;;;;;;21.45;19.73;;;;;;;14.25;66.44;100665.94;4976917;28;96798;-80
2023/08/10 04:19:31;;;;;;;22.35;20.35;;;;;;;14.23;66.51;100659.91;4976431;28;96987;-79
2023/08/10 04:21:57;;;;;;;21.17;19.30;;;;;;;14.24;66.32;100654.53;4995245;28;99726;-80
2023/08/10 04:24:22;;;;;;;23.50;21.10;;;;;;;14.35;66.36;100663.78;4994381;28;98807;-81
2023/08/10 04:26:48;;;;;;;23.17;20.98;;;;;;;14.42;66.25;100674.00;4993370;28;96778;-80
2023/08/10 04:29:14;;;;;;;21.95;20.25;;;;;;;14.39;66.17;100671.50;4991680;28;96841;-80
2023/08/10 04:31:40;;;;;;;22.15;20.17;;;;;;;14.40;66.30;100681.16;4993699;28;98003;-81
2023/08/10 04:34:05;;;;;;;23.50;20.95;;;;;;;14.55;65.81;100684.06;4994172;28;98743;-79
2023/08/10 04:36:33;;;;;;;22.50;20.55;;;;;;;14.71;65.56;100682.44;4993764;28;96861;-81
2023/08/10 04:38:59;;;;;;;22.20;20.17;;;;;;;14.89;65.14;100670.16;4964826;28;97235;-80
2023/08/10 04:41:25;;;;;;;22.50;20.27;;;;;;;15.06;64.52;100672.88;4993553;28;99315;-80
2023/08/10 04:43:51;;;;;;;23.40;21.20;;;;;;;15.19;64.05;100657.28;4993024;28;98407;-79
2023/08/10 04:46:17;;;;;;;22.60;20.55;;;;;;;15.36;63.85;100665.28;4981285;28;97655;-80
2023/08/10 04:48:42;;;;;;;23.70;20.40;;;;;;;15.51;63.28;100671.59;4992397;28;96836;-80
2023/08/10 04:51:08;;;;;;;22.70;20.35;;;;;;;15.65;62.96;100670.94;4989534;28;98128;-80
2023/08/10 04:53:33;;;;;;;23.33;19.75;;;;;;;15.87;62.55;100683.97;4993116;28;98605;-79
2023/08/10 04:55:59;;;;;;;23.63;21.42;;;;;;;16.06;62.25;100684.75;4990375;28;96821;-80
2023/08/10 04:58:24;;;;;;;24.30;21.88;;;;;;;16.15;61.68;100680.78;4988056;28;97007;-80
2023/08/10 05:00:52;;;;;;;21.20;18.85;;;;;;;16.30;61.55;100684.44;4992183;28;98382;-79
2023/08/10 05:03:20;;;;;;;21.75;19.75;;;;;;;16.41;60.74;100695.31;4975279;28;98430;-80
2023/08/10 05:05:46;;;;;;;22.58;20.77;;;;;;;16.51;60.25;100685.94;4970129;28;96833;-77
2023/08/10 05:08:12;;;;;;;22.60;20.30;;;;;;;16.67;59.82;100683.34;4988443;28;97216;-80
2023/08/10 05:10:38;;;;;;;22.25;20.35;;;;;;;16.80;60.19;100685.38;4996221;28;98898;-78
2023/08/10 05:13:04;;;;;;;21.33;19.73;;;;;;;16.87;60.10;100677.00;4991903;28;98681;-78
2023/08/10 05:15:29;;;;;;;22.40;20.83;;;;;;;17.13;59.12;100688.84;4983838;28;96778;-78
2023/08/10 05:17:55;;;;;;;23.02;20.95;;;;;;;17.31;58.92;100691.41;4993757;28;97349;-80
2023/08/10 05:20:21;;;;;;;22.65;20.52;;;;;;;17.52;58.19;100698.13;4992532;28;98729;-77
2023/08/10 05:22:49;;;;;;;22.38;20.67;;;;;;;17.76;57.67;100698.50;4989934;28;98481;-77
2023/08/10 05:25:14;;;;;;;22.63;20.90;;;;;;;18.04;56.96;100687.16;4979490;28;96679;-77
2023/08/10 05:27:40;;;;;;;23.13;21.33;;;;;;;18.40;56.30;100693.03;4975854;28;96831;-79
2023/08/10 05:30:08;;;;;;;23.13;21.15;;;;;;;18.86;55.31;100691.06;4992423;28;99055;-79
2023/08/10 05:32:36;;;;;;;23.52;21.42;;;;;;;19.19;54.46;100693.38;4991436;28;98540;-77
2023/08/10 05:35:02;;;;;;;22.75;20.95;;;;;;;19.65;53.41;100686.91;4990135;28;96834;-79
2023/08/10 05:37:27;;;;;;;22.38;20.67;;;;;;;20.10;52.45;100688.31;4991332;28;96862;-79
2023/08/10 05:39:53;;;;;;;24.23;22.02;;;;;;;20.85;50.50;100681.38;4982450;28;98832;-79
2023/08/10 05:42:18;;;;;;;23.15;21.05;;;;;;;21.68;48.51;100681.56;4980266;28;98449;-79
2023/08/10 05:44:45;;;;;;;22.65;20.85;;;;;;;22.94;46.12;100675.38;4984758;28;97157;-79
2023/08/10 05:47:11;;;;;;;22.98;21.33;;;;;;;24.06;43.70;100676.91;4986463;28;96971;-79
2023/08/10 05:49:37;;;;;;;22.40;20.50;;;;;;;25.03;42.29;100679.22;4991916;28;99199;-79
2023/08/10 05:52:03;;;;;;;23.35;21.27;;;;;;;25.67;40.64;100683.31;4989607;28;98274;-80
2023/08/10 05:54:29;;;;;;;23.15;21.20;;;;;;;26.37;39.30;100675.91;4988858;28;97156;-79
2023/08/10 05:56:55;;;;;;;22.52;20.65;;;;;;;26.90;38.68;100678.00;4991335;28;96944;-79
2023/08/10 05:59:20;;;;;;;24.00;21.80;;;;;;;27.30;38.26;100680.34;4988690;28;99291;-80
2023/08/10 06:01:47;;;;;;;22.95;21.08;;;;;;;27.23;37.05;100679.28;4990918;28;98654;-80
2023/08/10 06:04:14;;;;;;;22.15;20.27;;;;;;;27.59;36.89;100678.47;4987300;28;97333;-80
2023/08/10 06:06:39;;;;;;;25.35;22.50;;;;;;;28.24;36.16;100686.28;4992257;28;96915;-80
2023/08/10 06:09:07;;;;;;;22.13;20.52;;;;;;;28.80;35.35;100683.09;4985824;28;98737;-80
2023/08/10 06:11:33;;;;;;;22.20;20.05;;;;;;;28.95;34.96;100685.19;4982001;28;98631;-80
2023/08/10 06:13:59;;;;;;;22.02;20.48;;;;;;;29.34;34.30;100688.19;4991960;28;96859;-80
2023/08/10 06:16:26;;;;;;;20.98;19.48;;;;;;;29.54;34.22;100680.63;4988040;28;97394;-80
2023/08/10 06:18:51;;;;;;;21.63;20.02;;;;;;;29.48;33.57;100687.56;4980493;28;98994;-80
2023/08/10 06:21:18;;;;;;;22.20;20.40;;;;;;;29.95;33.19;100678.81;4991327;28;98996;-80
2023/08/10 06:23:43;;;;;;;20.88;19.38;;;;;;;30.20;33.05;100687.78;4990866;28;97115;-80
2023/08/10 06:26:10;;;;;;;21.35;19.55;;;;;;;30.41;32.46;100684.56;4989977;28;96935;-80
2023/08/10 06:28:35;;;;;;;20.33;18.65;;;;;;;30.67;32.02;100681.59;4991202;28;98754;-80
2023/08/10 06:31:01;;;;;;;20.98;19.15;;;;;;;30.63;31.64;100674.88;4991779;28;98423;-80
2023/08/10 06:33:26;;;;;;;20.52;19.02;;;;;;;30.61;32.00;100676.06;4986505;28;97161;-80
2023/08/10 06:35:52;;;;;;;22.05;20.20;;;;;;;30.90;31.90;100670.03;4991843;28;96867;-80
2023/08/10 06:38:18;;;;;;;21.65;19.95;;;;;;;30.96;31.43;100673.91;4991574;28;98859;-80
2023/08/10 06:40:44;;;;;;;20.38;19.08;;;;;;;31.49;30.96;100675.00;4979560;28;98833;-80
2023/08/10 06:43:09;;;;;;;21.23;19.52;;;;;;;32.10;30.08;100673.16;4988569;28;96816;-81
2023/08/10 06:45:40;;;;;;;21.33;19.73;;;;;;;32.53;29.35;100681.56;4972853;28;96828;-80
2023/08/10 06:48:05;;;;;;;21.27;19.80;;;;;;;32.35;29.92;100681.03;4990891;28;99188;-81
2023/08/10 06:50:32;;;;;;;20.85;19.10;;;;;;;32.44;29.60;100674.53;4990569;28;98715;-81
2023/08/10 06:52:57;;;;;;;20.80;19.40;;;;;;;32.69;28.94;100680.53;4991316;28;97410;-81
2023/08/10 06:55:23;;;;;;;21.35;19.73;;;;;;;32.96;28.93;100687.19;4991358;28;97180;-81
2023/08/10 06:57:48;;;;;;;21.27;19.85;;;;;;;33.34;28.65;100685.16;4990912;28;98674;-81
2023/08/10 07:00:19;;;;;;;21.30;19.80;;;;;;;33.75;27.82;100686.44;4990322;28;98443;-81
2023/08/10 07:02:45;;;;;;;21.45;19.75;;;;;;;33.99;27.24;100691.44;4972358;28;96780;-81
2023/08/10 07:05:10;;;;;;;21.23;19.73;;;;;;;34.00;27.04;100689.56;4990129;28;97451;-81
2023/08/10 07:07:36;;;;;;;22.17;20.40;;;;;;;34.37;26.84;100699.31;4987909;28;99053;-81
2023/08/10 07:10:05;;;;;;;21.17;19.67;;;;;;;34.60;26.82;100696.34;4987571;28;98994;-81
2023/08/10 07:12:30;;;;;;;22.92;20.77;;;;;;;35.10;26.04;100690.75;4966235;28;96980;-81
2023/08/10 07:14:56;;;;;;;21.17;19.75;;;;;;;34.67;25.44;100689.03;4986533;28;96936;-81
2023/08/10 07:17:21;;;;;;;21.13;19.52;;;;;;;34.71;25.34;100689.50;4988363;28;99121;-81
2023/08/10 07:19:47;;;;;;;21.10;19.60;;;;;;;34.98;25.28;100690.47;4977894;28;98465;-81
2023/08/10 07:22:13;;;;;;;20.35;19.05;;;;;;;34.90;24.72;100691.47;4990264;28;96800;-81
2023/08/10 07:24:39;;;;;;;19.52;18.17;;;;;;;34.80;24.81;100691.00;4968380;28;97140;-81
2023/08/10 07:27:04;;;;;;;19.63;18.27;;;;;;;35.08;24.92;100695.56;4986922;28;98723;-82
2023/08/10 07:29:30;;;;;;;20.13;18.73;;;;;;;35.49;24.69;100686.44;4988648;28;98877;-81
2023/08/10 07:32:00;;;;;;;21.77;20.23;;;;;;;35.81;24.27;100687.56;4980102;28;97109;-81
2023/08/10 07:34:27;;;;;;;20.10;18.50;;;;;;;36.43;24.24;100683.56;4950994;28;97211;-81
2023/08/10 07:36:53;;;;;;;20.98;19.35;;;;;;;36.93;23.20;100685.75;4991028;28;99554;-81
2023/08/10 07:39:19;;;;;;;20.83;19.30;;;;;;;36.79;23.09;100684.97;4993335;28;98417;-81
2023/08/10 07:41:44;;;;;;;20.33;18.88;;;;;;;36.58;23.16;100679.78;4994482;28;97169;-82
2023/08/10 07:44:10;;;;;;;20.15;18.85;;;;;;;36.74;23.91;100690.22;4994520;28;96862;-81
2023/08/10 07:46:35;;;;;;;19.58;18.15;;;;;;;37.31;23.26;100690.44;4992507;28;99129;-82
2023/08/10 07:49:01;;;;;;;19.55;18.10;;;;;;;37.66;22.71;100690.88;4994043;28;98699;-83
2023/08/10 07:51:26;;;;;;;19.90;18.30;;;;;;;38.00;22.77;100686.84;4992582;28;97066;-82
2023/08/10 07:53:52;;;;;;;19.88;18.58;;;;;;;38.09;22.42;100687.41;4987156;28;96823;-81
2023/08/10 07:56:17;;;;;;;21.48;19.95;;;;;;;37.74;22.39;100682.38;4991820;28;99123;-81
2023/08/10 07:58:43;;;;;;;19.10;17.90;;;;;;;37.99;21.93;100682.44;4994106;28;98814;-81
2023/08/10 08:01:08;;;;;;;19.13;17.83;;;;;;;38.33;21.95;100690.34;4972611;28;98243;-81
2023/08/10 08:03:35;;;;;;;19.98;18.48;;;;;;;38.22;21.71;100687.25;4994228;28;97930;-81
2023/08/10 08:06:00;;;;;;;20.45;19.05;;;;;;;37.81;21.82;100685.91;4993247;28;98780;-82
2023/08/10 08:08:28;;;;;;;19.90;18.60;;;;;;;36.17;22.83;100694.53;4994160;28;98308;-75
2023/08/10 08:10:55;;;;;;;19.17;17.88;;;;;;;37.69;21.56;100690.44;4990982;28;97131;-75
2023/08/10 08:13:20;;;;;;;19.05;17.65;;;;;;;38.07;22.37;100691.41;4973320;28;97003;-74
2023/08/10 08:15:45;;;;;;;20.80;19.13;;;;;;;38.45;21.18;100685.81;4990678;28;98762;-75
2023/08/10 08:18:42;;;;;;;23.73;21.85;;;;;;;38.41;21.02;100695.56;4993838;28;98712;-75
2023/08/10 08:21:19;;;;;;;21.40;19.77;;;;;;;36.97;22.20;100697.09;4988223;28;97282;-75
2023/08/10 08:23:45;;;;;;;20.85;19.48;;;;;;;38.63;21.37;100699.53;4987876;28;98185;-82
2023/08/10 08:26:11;;;;;;;19.65;18.40;;;;;;;39.71;20.64;100697.94;4981408;28;98818;-82
2023/08/10 08:28:37;;;;;;;20.85;19.17;;;;;;;40.12;19.32;100689.88;4990304;28;98639;-82
2023/08/10 08:31:03;;;;;;;21.50;20.00;;;;;;;40.21;19.89;100697.56;4987532;28;96778;-82
2023/08/10 08:33:29;;;;;;;19.45;18.15;;;;;;;40.05;18.92;100687.22;4991466;28;97166;-84
2023/08/10 08:35:55;;;;;;;19.77;18.48;;;;;;;40.44;18.81;100685.72;4989770;28;98701;-84
2023/08/10 08:38:21;;;;;;;20.67;19.17;;;;;;;41.09;18.88;100675.56;4983965;28;98449;-83
2023/08/10 08:40:50;;;;;;;20.17;18.88;;;;;;;41.55;18.37;100682.75;4991275;28;96793;-83
2023/08/10 08:43:16;;;;;;;19.70;18.40;;;;;;;40.41;18.20;100672.44;4991014;28;97221;-84
2023/08/10 08:45:42;;;;;;;20.40;19.10;;;;;;;40.18;18.40;100676.03;4991908;28;98751;-82
2023/08/10 08:48:09;;;;;;;20.85;19.35;;;;;;;40.35;19.52;100683.53;4989200;28;98621;-83
2023/08/10 08:50:38;;;;;;;19.10;17.75;;;;;;;41.07;18.46;100681.28;4990935;28;97813;-80
2023/08/10 08:53:05;;;;;;;18.98;17.77;;;;;;;40.72;17.47;100679.44;4982210;28;97274;-80
2023/08/10 08:55:31;;;;;;;20.02;18.73;;;;;;;41.24;18.24;100686.84;4991380;28;99025;-81
2023/08/10 08:57:57;;;;;;;19.60;18.40;;;;;;;40.49;18.88;100676.72;4987338;28;98440;-80
2023/08/10 09:00:23;;;;;;;21.50;19.98;;;;;;;39.62;18.02;100671.84;4988664;28;97000;-80
2023/08/10 09:02:50;;;;;;;20.52;19.23;;;;;;;39.02;18.72;100682.84;4991516;28;97235;-81
2023/08/10 09:05:16;;;;;;;20.17;18.67;;;;;;;38.47;19.48;100687.25;4988479;28;99163;-80
2023/08/10 09:07:41;;;;;;;21.33;19.92;;;;;;;36.77;19.75;100673.41;4973733;28;98920;-80
2023/08/10 09:10:07;;;;;;;20.27;18.88;;;;;;;36.38;21.06;100674.31;4993321;28;96797;-80
2023/08/10 09:12:40;;;;;;;20.92;19.35;;;;;;;37.28;21.34;100674.47;4975029;28;97350;-80
2023/08/10 09:15:10;;;;;;;21.15;19.65;;;;;;;38.31;19.88;100671.34;4992187;28;98599;-80
2023/08/10 09:17:39;;;;;;;20.83;19.33;;;;;;;38.57;19.34;100674.91;4991283;28;98623;-80
2023/08/10 09:20:08;;;;;;;20.58;19.02;;;;;;;38.29;19.77;100673.50;4988263;28;96786;-81
2023/08/10 09:22:38;;;;;;;20.60;18.77;;;;;;;37.66;20.01;100679.09;4987672;28;96869;-81
2023/08/10 09:25:06;;;;;;;19.65;18.35;;;;;;;37.38;20.04;100674.81;4992680;28;99080;-81
2023/08/10 09:27:32;;;;;;;18.63;17.42;;;;;;;36.86;20.82;100674.84;4992146;28;98773;-81
2023/08/10 09:30:00;;;;;;;19.52;18.23;;;;;;;36.18;21.77;100674.34;4992454;28;96829;-81
2023/08/10 09:32:25;;;;;;;19.75;18.45;;;;;;;35.72;22.30;100665.09;4989837;28;97480;-80
2023/08/10 09:34:54;;;;;;;19.27;17.90;;;;;;;34.49;21.71;100673.19;4990777;28;99302;-80
2023/08/10 09:37:20;;;;;;;19.17;17.85;;;;;;;34.20;22.18;100673.41;4989381;28;98361;-81
2023/08/10 09:39:46;;;;;;;19.25;18.02;;;;;;;32.91;23.09;100673.31;4991078;28;97336;-82
2023/08/10 09:42:11;;;;;;;20.52;19.13;;;;;;;32.27;24.21;100678.44;4992306;28;96968;-75
2023/08/10 09:44:48;;;;;;;21.33;19.42;;;;;;;32.21;24.77;100671.88;4992440;28;98632;-85
2023/08/10 09:47:14;;;;;;;19.90;18.50;;;;;;;32.18;24.41;100673.09;4988356;28;98778;-86
2023/08/10 09:49:57;;;;;;;19.65;18.45;;;;;;;33.09;24.43;100672.94;4990096;28;96837;-86
2023/08/10 09:52:26;;;;;;;20.00;18.70;;;;;;;33.62;23.86;100667.25;4980037;28;96806;-86
2023/08/10 09:54:55;;;;;;;19.25;17.95;;;;;;;33.49;23.40;100671.50;4991027;28;99478;-85
2023/08/10 09:57:22;;;;;;;19.13;17.92;;;;;;;32.98;23.93;100667.94;4989553;28;98415;-84
2023/08/10 09:59:48;;;;;;;20.17;18.67;;;;;;;32.99;23.69;100675.97;4984587;28;96781;-84
2023/08/10 10:02:14;;;;;;;19.45;18.15;;;;;;;32.75;23.47;100674.34;4991943;28;96905;-84
2023/08/10 10:04:44;;;;;;;19.20;18.00;;;;;;;32.78;23.82;100671.25;4991540;28;98962;-84
2023/08/10 10:07:11;;;;;;;20.10;18.80;;;;;;;33.03;25.41;100670.97;4991585;28;98298;-84
2023/08/10 10:09:37;;;;;;;20.60;18.98;;;;;;;33.03;24.10;100660.94;4992216;28;96780;-83
2023/08/10 10:12:05;;;;;;;19.23;17.85;;;;;;;32.80;24.67;100660.19;4992131;28;97133;-84
2023/08/10 10:14:31;;;;;;;18.98;17.67;;;;;;;31.35;24.86;100663.88;4987375;28;98996;-83
2023/08/10 10:16:57;;;;;;;19.20;18.00;;;;;;;31.88;24.89;100663.16;4973500;28;98093;-84
2023/08/10 10:19:23;;;;;;;20.30;18.70;;;;;;;30.49;25.29;100661.19;4991851;28;96825;-84
2023/08/10 10:21:49;;;;;;;20.15;18.85;;;;;;;31.09;25.78;100660.63;4972656;28;97331;-83
2023/08/10 10:24:18;;;;;;;20.08;18.77;;;;;;;30.49;25.13;100656.63;4974252;28;98747;-85
2023/08/10 10:27:08;;;;;;;20.80;19.33;;;;;;;30.50;25.69;100657.47;4989437;28;99363;-83
2023/08/10 10:29:38;;;;;;;;;;;;;;;30.21;26.18;100662.41;4973797;28;97227;-83
2023/08/10 10:32:13;;;;;;;20.52;18.92;;;;;;;29.65;26.35;100657.88;4980311;28;97078;-84
2023/08/10 10:34:40;;;;;;;21.42;19.42;;;;;;;28.49;27.46;100663.03;4967988;28;98839;-83
2023/08/10 10:37:34;;;;;;;19.60;18.30;;;;;;;28.71;27.63;100654.38;4991362;28;98477;-83
2023/08/10 10:40:18;;;;;;;19.10;17.70;;;;;;;27.80;28.48;100659.28;4983408;28;96838;-83
2023/08/10 10:43:06;;;;;;;19.30;18.00;;;;;;;27.91;28.36;100661.75;4964232;28;97452;-84
2023/08/10 10:45:42;;;;;;;19.35;18.05;;;;;;;27.82;28.02;100651.91;4985052;28;99259;-83
2023/08/10 10:48:12;;;;;;;19.20;18.00;;;;;;;28.00;28.44;100655.41;4973404;28;98593;-83
2023/08/10 10:50:38;;;;;;;19.52;18.13;;;;;;;27.46;27.78;100657.25;4988421;28;97351;-83
2023/08/10 10:53:12;;;;;;;19.23;17.92;;;;;;;27.15;28.52;100663.03;4988995;28;96844;-83
2023/08/10 10:55:44;;;;;;;19.42;18.13;;;;;;;27.43;28.54;100657.56;4972668;28;99156;-83
2023/08/10 10:58:11;;;;;;;19.20;18.00;;;;;;;27.86;28.87;100656.81;4987943;28;98860;-83
2023/08/10 11:00:37;;;;;;;19.88;18.27;;;;;;;28.04;28.86;100653.25;4990831;28;97705;-83
2023/08/10 11:03:04;;;;;;;19.05;17.80;;;;;;;28.12;29.66;100648.75;4990982;28;97283;-83
2023/08/10 11:05:30;;;;;;;19.33;18.13;;;;;;;28.31;30.19;100647.69;4990662;28;99612;-82
2023/08/10 11:07:56;;;;;;;19.65;17.90;;;;;;;28.48;30.82;100645.09;4993884;28;98638;-84
2023/08/10 11:10:21;;;;;;;19.40;18.20;;;;;;;28.30;29.57;100637.91;4993994;28;96755;-83